• Join FlightAware (Why Join?)
  • Login
  • US Flag 
 
07:21PM EST


 

Airport Tracker/Info


-or-


 

Live Flight TrackerFlight Track Log ✈ SWA3943 ✈ 17-Apr-2013 ✈ KCMH - KBWI

Flight Track Log - Related Links

Times and Time Zones

All times are in EDT time to prevent confusion due to time zone crossing. See the SWA3943 flight status page for this flight to view local times or setup timezone preferences in your user account.

Time Position Orientation Groundspeed Altitude Reporting Facility
EDT Latitude Longitude Course Direction KTS MPH feet Rate Location/Type
08:23PM 39.9911 -82.8328 93° East 165 190 2,500  Level Indianapolis Center
08:24PM 39.9911 -82.7847 90° East 213 245 3,300 1,680 Climbing Indianapolis Center
08:24PM 39.9925 -82.7458 87° East 247 284 4,400 2,160 Climbing Indianapolis Center
08:25PM 39.9919 -82.6739 91° East 256 295 5,500 3,060 Climbing Indianapolis Center
08:26PM 39.9914 -82.5675 90° East 290 334 9,600 3,180 Climbing Indianapolis Center
08:27PM 39.9925 -82.4503 89° East 329 379 12,100 3,000 Climbing Indianapolis Center
08:28PM 39.9936 -82.3217 89° East 349 402 15,800 3,060 Climbing Indianapolis Center
08:29PM 39.9972 -82.1914 88° East 360 414 18,400 2,400 Climbing Indianapolis Center
08:30PM 40.0008 -82.0506 88° East 381 438 20,800 2,220 Climbing Indianapolis Center
08:31PM 40.0036 -81.9017 89° East 402 463 23,000 2,040 Climbing Indianapolis Center
08:32PM 40.0061 -81.7597 89° East 418 481 25,100 2,160 Climbing Indianapolis Center
08:33PM 40.0081 -81.5739 89° East 436 502 27,500 1,860 Climbing Indianapolis Center
08:34PM 40.0089 -81.4097 90° East 448 516 29,000 720 Climbing Indianapolis Center
08:35PM 39.9869 -81.2431 100° East 463 533 29,000  Level Indianapolis Center
08:36PM 39.9700 -81.1086 99° East 461 531 29,000  Level Cleveland Center
08:37PM 39.9478 -80.9406 100° East 467 537 29,000  Level Cleveland Center
08:38PM 39.9231 -80.7753 101° East 467 537 29,000  Level Cleveland Center
08:39PM 39.8961 -80.6075 102° East 467 537 29,000  Level Cleveland Center
08:40PM 39.8733 -80.4425 100° East 467 537 29,000  Level Cleveland Center
08:41PM 39.8458 -80.2639 101° East 467 537 29,000  Level Cleveland Center
08:42PM 39.8222 -80.1019 101° East 467 537 29,000  Level Cleveland Center
08:43PM 39.7964 -79.9372 101° East 467 537 29,000  Level Cleveland Center
08:44PM 39.7725 -79.7728 101° East 467 537 29,000  Level Cleveland Center
08:45PM 39.7344 -79.5419 102° East 462 532 29,000  Level Washington Center
08:46PM 39.7083 -79.3786 102° East 462 532 29,000 -1,080 Level Washington Center
08:47PM 39.6842 -79.2208 101° East 456 525 26,900 -2,040 Descending Washington Center
08:48PM 39.6575 -79.0633 102° East 450 518 25,000 -960 Descending Washington Center
08:49PM 39.6258 -78.9269 107° East 439 505 25,000  Level Washington Center
08:50PM 39.5944 -78.7775 105° East 439 505 25,000 -900 Level Washington Center
08:51PM 39.5628 -78.6386 106° East 419 482 23,200 -2,040 Descending Washington Center
08:52PM 39.5328 -78.5031 106° East 405 466 21,000 -2,160 Descending Washington Center
08:53PM 39.5044 -78.3728 106° East 393 452 18,900 -2,100 Descending Washington Center
08:54PM 39.4761 -78.2453 106° East 374 430 16,900 -2,040 Descending Washington Center
08:55PM 39.4517 -78.1181 104° East 369 425 14,900 -1,020 Descending Washington Center
08:56PM 39.4503 -77.9889 91° East 356 410 14,900  Level Washington Center
08:57PM 39.4483 -77.8653 91° East 351 404 15,000  Climbing Washington Center
08:58PM 39.4486 -77.7389 90° East 351 404 15,000 -480 Level Washington Center
08:59PM 39.4467 -77.6125 91° East 351 404 14,100 -1,560 Descending Washington Center
09:00PM 39.4447 -77.4756 91° East 346 398 11,900 -1,560 Descending Washington Center
09:01PM 39.4444 -77.3572 90° East 346 398 11,000 -1,140 Descending Washington Center
09:02PM 39.4586 -77.2472 80° East 328 377 9,700 -1,560 Descending Washington Center
09:02PM 39.4500 -77.2167 110° East 306 352 9,000 -1,800 Descending Potomac TRACON
09:03PM 39.4167 -77.1167 113° Southeast 297 342 7,400 -1,560 Descending Potomac TRACON
09:04PM 39.3667 -77.0500 134° Southeast 286 329 5,900 -1,380 Descending Potomac TRACON
09:06PM 39.3092 -76.9348 142° Southeast  Level Estimated
09:06PM 39.2333 -76.9500 142° Southeast 250 288 3,300  Level Potomac TRACON
09:07PM 39.1833 -76.8833 134° Southeast 242 278 2,500 -600 Descending Potomac TRACON
09:08PM 39.1833 -76.8167 90° East 185 213 2,200 -660 Descending Potomac TRACON
09:10PM 39.1667 -76.6853 90° East  Level FlightAware Approximate
09:10PM 39.1833 -76.7167 90° East 129 148 700  Level Potomac TRACON
09:12PM 39.1667 -76.6667 90° East  Level FlightAware Approximate
09:19PM 39.1754 -76.6683 90° East  Level Estimated
09:20PM 39.1754 -76.6683 90° East  Level Estimated
09:21PM 39.1754 -76.6683 90° East  Level Estimated